Time,TemperatureF,DewpointF,PressureIn,WindDirection,WindDirectionDegrees,WindSpeedMPH,WindSpeedGustMPH,Humidity,HourlyPrecipIn,Conditions,Clouds,dailyrainin,SoftwareType,DateUTC
2013-02-12 00:00:00,54.4,53.8,30.08,SW,232,6.0,12.0,98,0.02,,SKC,0.48,VWS V14.01,2013-02-12 05:00:00,
2013-02-12 00:02:00,54.4,53.8,30.08,SW,234,4.0,7.0,98,0.01,,SKC,0.00,VWS V14.01,2013-02-12 05:02:00,
2013-02-12 00:04:00,54.3,53.8,30.07,WSW,248,4.0,8.0,98,0.01,,SKC,0.00,VWS V14.01,2013-02-12 05:04:00,
2013-02-12 00:09:00,54.2,53.7,30.06,SSW,209,4.0,10.0,98,0.02,,SKC,0.01,VWS V14.01,2013-02-12 05:09:00,
2013-02-12 00:14:00,54.1,53.5,30.06,South,176,1.0,10.0,98,0.02,,SKC,0.01,VWS V14.01,2013-02-12 05:14:00,
2013-02-12 00:19:00,54.0,53.5,30.05,SW,227,0.0,10.0,98,0.02,,SKC,0.01,VWS V14.01,2013-02-12 05:19:00,
2013-02-12 00:24:00,53.9,53.3,30.05,WSW,256,0.0,10.0,98,0.02,,SKC,0.01,VWS V14.01,2013-02-12 05:24:00,
2013-02-12 00:29:00,53.9,53.3,30.05,SSW,204,1.0,10.0,98,0.02,,SKC,0.01,VWS V14.01,2013-02-12 05:29:00,
2013-02-12 00:34:00,53.7,53.2,30.05,SW,234,3.0,10.0,98,0.02,,SKC,0.01,VWS V14.01,2013-02-12 05:34:00,
2013-02-12 00:39:00,53.7,53.2,30.05,WSW,245,1.0,10.0,98,0.02,,SKC,0.01,VWS V14.01,2013-02-12 05:39:00,
2013-02-12 00:44:00,53.7,53.2,30.05,WSW,245,0.0,10.0,98,0.03,,SKC,0.02,VWS V14.01,2013-02-12 05:44:00,
2013-02-12 00:49:00,53.6,53.0,30.05,WSW,245,0.0,10.0,98,0.03,,SKC,0.02,VWS V14.01,2013-02-12 05:49:00,
2013-02-12 00:54:00,53.5,53.0,30.04,WSW,245,0.0,10.0,98,0.03,,SKC,0.02,VWS V14.01,2013-02-12 05:54:00,
2013-02-12 00:59:00,53.5,53.0,30.03,WSW,245,0.0,10.0,98,0.03,,SKC,0.02,VWS V14.01,2013-02-12 05:59:00,
2013-02-12 01:00:00,53.1,52.5,30.03,SSW,204,4.0,9.0,98,0.02,,SKC,0.02,VWS V14.01,2013-02-12 06:00:00,
2013-02-12 01:04:00,53.4,52.8,30.03,SSW,198,1.0,3.0,98,0.02,,SKC,0.02,VWS V14.01,2013-02-12 06:04:00,
2013-02-12 01:09:00,53.4,52.8,30.03,SSW,198,0.0,3.0,98,0.02,,SKC,0.02,VWS V14.01,2013-02-12 06:09:00,
2013-02-12 01:14:00,53.3,52.8,30.03,SSW,198,2.0,3.0,98,0.02,,SKC,0.02,VWS V14.01,2013-02-12 06:14:00,
2013-02-12 01:19:00,53.3,52.8,30.03,SSW,203,2.0,5.0,98,0.02,,SKC,0.02,VWS V14.01,2013-02-12 06:19:00,
2013-02-12 01:24:00,53.2,52.7,30.02,SSW,207,3.0,5.0,98,0.02,,SKC,0.02,VWS V14.01,2013-02-12 06:24:00,
2013-02-12 01:29:00,53.2,52.7,30.03,SW,217,1.0,5.0,98,0.02,,SKC,0.02,VWS V14.01,2013-02-12 06:29:00,
2013-02-12 01:34:00,53.2,52.7,30.03,SW,223,0.0,5.0,98,0.02,,SKC,0.02,VWS V14.01,2013-02-12 06:34:00,
2013-02-12 01:39:00,53.2,52.7,30.03,SSW,200,5.0,6.0,98,0.02,,SKC,0.02,VWS V14.01,2013-02-12 06:39:00,
2013-02-12 01:44:00,53.2,52.7,30.04,WSW,237,4.0,6.0,98,0.02,,SKC,0.02,VWS V14.01,2013-02-12 06:44:00,
2013-02-12 01:49:00,53.2,52.7,30.04,WSW,254,1.0,6.0,98,0.02,,SKC,0.02,VWS V14.01,2013-02-12 06:49:00,
2013-02-12 01:54:00,53.2,52.7,30.03,SW,231,3.0,6.0,98,0.02,,SKC,0.02,VWS V14.01,2013-02-12 06:54:00,
2013-02-12 01:59:00,53.1,52.5,30.03,SW,218,3.0,9.0,98,0.02,,SKC,0.02,VWS V14.01,2013-02-12 06:59:00,
2013-02-12 02:00:00,52.8,52.2,30.03,WSW,238,4.0,11.0,98,0.00,,SKC,0.02,VWS V14.01,2013-02-12 07:00:00,
2013-02-12 02:04:00,53.1,52.5,30.03,WSW,239,0.0,6.0,98,0.00,,SKC,0.02,VWS V14.01,2013-02-12 07:04:00,
2013-02-12 02:09:00,53.1,52.5,30.02,SSW,207,3.0,6.0,98,0.00,,SKC,0.02,VWS V14.01,2013-02-12 07:09:00,
2013-02-12 02:14:00,53.1,52.5,30.03,SSW,207,9.0,9.0,98,0.00,,SKC,0.02,VWS V14.01,2013-02-12 07:14:00,
2013-02-12 02:19:00,53.1,52.5,30.03,WSW,239,5.0,9.0,98,0.00,,SKC,0.02,VWS V14.01,2013-02-12 07:19:00,
2013-02-12 02:24:00,53.1,52.5,30.04,SSW,200,4.0,10.0,98,0.00,,SKC,0.02,VWS V14.01,2013-02-12 07:24:00,
2013-02-12 02:29:00,53.1,52.5,30.04,WSW,242,1.0,10.0,98,0.00,,SKC,0.02,VWS V14.01,2013-02-12 07:29:00,
2013-02-12 02:34:00,53.1,52.5,30.04,SW,229,5.0,10.0,98,0.00,,SKC,0.02,VWS V14.01,2013-02-12 07:34:00,
2013-02-12 02:39:00,53.1,52.5,30.04,SW,219,1.0,11.0,98,0.00,,SKC,0.02,VWS V14.01,2013-02-12 07:39:00,
2013-02-12 02:44:00,53.0,52.5,30.04,SW,235,3.0,11.0,98,0.00,,SKC,0.02,VWS V14.01,2013-02-12 07:44:00,
2013-02-12 02:49:00,53.0,52.5,30.03,SW,234,0.0,11.0,98,0.00,,SKC,0.02,VWS V14.01,2013-02-12 07:49:00,
2013-02-12 02:54:00,52.9,52.3,30.03,SW,232,2.0,11.0,98,0.00,,SKC,0.02,VWS V14.01,2013-02-12 07:54:00,
2013-02-12 02:59:00,52.8,52.2,30.02,SW,230,0.0,11.0,98,0.00,,SKC,0.02,VWS V14.01,2013-02-12 07:59:00,
2013-02-12 03:00:00,52.0,51.5,30.02,WSW,242,5.0,9.0,98,0.00,,SKC,0.02,VWS V14.01,2013-02-12 08:00:00,
2013-02-12 03:04:00,52.7,52.2,30.03,SW,233,3.0,5.0,98,0.00,,SKC,0.02,VWS V14.01,2013-02-12 08:04:00,
2013-02-12 03:09:00,52.7,52.2,30.02,SW,225,2.0,9.0,98,0.00,,SKC,0.02,VWS V14.01,2013-02-12 08:09:00,
2013-02-12 03:14:00,52.6,52.0,30.02,WSW,244,0.0,9.0,98,0.00,,SKC,0.02,VWS V14.01,2013-02-12 08:14:00,
2013-02-12 03:19:00,52.6,52.0,30.02,WSW,246,1.0,9.0,98,0.00,,SKC,0.02,VWS V14.01,2013-02-12 08:19:00,
2013-02-12 03:24:00,52.5,52.0,30.02,West,273,3.0,9.0,98,0.00,,SKC,0.02,VWS V14.01,2013-02-12 08:24:00,
2013-02-12 03:29:00,52.4,51.8,30.02,SW,215,3.0,9.0,98,0.00,,SKC,0.02,VWS V14.01,2013-02-12 08:29:00,
2013-02-12 03:34:00,52.4,51.8,30.02,SW,225,1.0,9.0,98,0.00,,SKC,0.02,VWS V14.01,2013-02-12 08:34:00,
2013-02-12 03:39:00,52.3,51.8,30.02,SW,223,1.0,9.0,98,0.00,,SKC,0.02,VWS V14.01,2013-02-12 08:39:00,
2013-02-12 03:44:00,52.2,51.7,30.02,SW,222,5.0,9.0,98,0.00,,SKC,0.02,VWS V14.01,2013-02-12 08:44:00,
2013-02-12 03:49:00,52.1,51.5,30.02,SSW,213,3.0,9.0,98,0.00,,SKC,0.02,VWS V14.01,2013-02-12 08:49:00,
2013-02-12 03:54:00,52.1,51.5,30.02,WSW,237,3.0,9.0,98,0.00,,SKC,0.02,VWS V14.01,2013-02-12 08:54:00,
2013-02-12 03:59:00,52.1,51.5,30.03,SW,228,1.0,9.0,98,0.00,,SKC,0.02,VWS V14.01,2013-02-12 08:59:00,
2013-02-12 04:00:00,51.6,51.1,30.04,WSW,254,1.0,7.0,98,0.00,,SKC,0.02,VWS V14.01,2013-02-12 09:00:00,
2013-02-12 04:04:00,52.0,51.5,30.02,SSW,213,3.0,5.0,98,0.00,,SKC,0.02,VWS V14.01,2013-02-12 09:04:00,
2013-02-12 04:09:00,52.0,51.5,30.02,SSW,211,2.0,5.0,98,0.00,,SKC,0.02,VWS V14.01,2013-02-12 09:09:00,
2013-02-12 04:14:00,51.9,51.4,30.02,SW,221,1.0,5.0,98,0.00,,SKC,0.02,VWS V14.01,2013-02-12 09:14:00,
2013-02-12 04:19:00,51.9,51.4,30.02,SW,219,1.0,5.0,98,0.00,,SKC,0.02,VWS V14.01,2013-02-12 09:19:00,
2013-02-12 04:24:00,51.8,51.3,30.02,SSW,207,6.0,6.0,98,0.00,,SKC,0.02,VWS V14.01,2013-02-12 09:24:00,
2013-02-12 04:29:00,51.9,51.4,30.02,SW,215,4.0,7.0,98,0.00,,SKC,0.02,VWS V14.01,2013-02-12 09:29:00,
2013-02-12 04:34:00,51.9,51.4,30.03,SW,227,3.0,7.0,98,0.00,,SKC,0.02,VWS V14.01,2013-02-12 09:34:00,
2013-02-12 04:39:00,51.9,51.1,30.03,SW,227,0.0,7.0,97,0.00,,SKC,0.02,VWS V14.01,2013-02-12 09:39:00,
2013-02-12 04:44:00,51.9,51.1,30.04,WSW,252,0.0,7.0,97,0.00,,SKC,0.02,VWS V14.01,2013-02-12 09:44:00,
2013-02-12 04:49:00,51.8,51.0,30.04,WSW,250,2.0,7.0,97,0.00,,SKC,0.02,VWS V14.01,2013-02-12 09:49:00,
2013-02-12 04:54:00,51.8,51.3,30.04,WSW,237,2.0,7.0,98,0.00,,SKC,0.02,VWS V14.01,2013-02-12 09:54:00,
2013-02-12 04:59:00,51.7,51.2,30.03,SW,233,3.0,7.0,98,0.00,,SKC,0.02,VWS V14.01,2013-02-12 09:59:00,
2013-02-12 05:00:00,50.8,49.7,30.01,SSW,213,3.0,5.0,96,0.00,,SKC,0.02,VWS V14.01,2013-02-12 10:00:00,
2013-02-12 05:04:00,51.5,51.0,30.04,WSW,257,2.0,5.0,98,0.00,,SKC,0.02,VWS V14.01,2013-02-12 10:04:00,
2013-02-12 05:09:00,51.5,50.7,30.04,WSW,251,0.0,5.0,97,0.00,,SKC,0.02,VWS V14.01,2013-02-12 10:09:00,
2013-02-12 05:14:00,51.4,50.6,30.04,SW,229,1.0,5.0,97,0.00,,SKC,0.02,VWS V14.01,2013-02-12 10:14:00,
2013-02-12 05:19:00,51.3,50.5,30.04,SW,234,3.0,5.0,97,0.00,,SKC,0.02,VWS V14.01,2013-02-12 10:19:00,
2013-02-12 05:24:00,51.3,50.5,30.04,WSW,247,1.0,5.0,97,0.00,,SKC,0.02,VWS V14.01,2013-02-12 10:24:00,
2013-02-12 05:29:00,51.2,50.4,30.04,West,264,3.0,5.0,97,0.00,,SKC,0.02,VWS V14.01,2013-02-12 10:29:00,
2013-02-12 05:34:00,51.2,50.4,30.05,SW,221,5.0,5.0,97,0.00,,SKC,0.02,VWS V14.01,2013-02-12 10:34:00,
2013-02-12 05:39:00,51.1,50.3,30.04,WSW,253,3.0,5.0,97,0.00,,SKC,0.02,VWS V14.01,2013-02-12 10:39:00,
2013-02-12 05:44:00,51.0,50.2,30.03,West,259,1.0,5.0,97,0.00,,SKC,0.02,VWS V14.01,2013-02-12 10:44:00,
2013-02-12 05:49:00,50.9,50.1,30.02,West,275,2.0,5.0,97,0.00,,SKC,0.02,VWS V14.01,2013-02-12 10:49:00,
2013-02-12 05:54:00,50.9,50.1,30.02,WSW,249,0.0,5.0,97,0.00,,SKC,0.02,VWS V14.01,2013-02-12 10:54:00,
2013-02-12 05:58:00,50.8,49.7,30.01,SSW,204,0.0,5.0,96,0.00,,SKC,0.02,VWS V14.01,2013-02-12 10:58:00,
2013-02-12 06:00:00,50.3,49.2,30.05,SW,224,1.0,4.0,96,0.01,,-RA,0.03,VWS V14.01,2013-02-12 11:00:00,
2013-02-12 06:03:00,50.8,49.7,30.01,SSW,213,2.0,2.0,96,0.00,,SKC,0.02,VWS V14.01,2013-02-12 11:03:00,
2013-02-12 06:08:00,50.7,49.6,30.01,SSW,213,0.0,2.0,96,0.00,,SKC,0.02,VWS V14.01,2013-02-12 11:08:00,
2013-02-12 06:13:00,50.6,49.5,30.01,SW,223,4.0,4.0,96,0.00,,SKC,0.02,VWS V14.01,2013-02-12 11:13:00,
2013-02-12 06:18:00,50.5,49.4,30.02,SW,224,3.0,4.0,96,0.00,,SKC,0.02,VWS V14.01,2013-02-12 11:18:00,
2013-02-12 06:23:00,50.5,49.4,30.03,SW,224,1.0,4.0,96,0.00,,SKC,0.02,VWS V14.01,2013-02-12 11:23:00,
2013-02-12 06:28:00,50.4,49.3,30.02,SW,224,0.0,4.0,96,0.00,,SKC,0.02,VWS V14.01,2013-02-12 11:28:00,
2013-02-12 06:33:00,50.4,49.3,30.02,SW,224,0.0,4.0,96,0.00,,SKC,0.02,VWS V14.01,2013-02-12 11:33:00,
2013-02-12 06:38:00,50.3,49.2,30.03,SW,224,0.0,4.0,96,0.00,,SKC,0.02,VWS V14.01,2013-02-12 11:38:00,
2013-02-12 06:43:00,50.3,49.2,30.04,SW,224,0.0,4.0,96,0.00,,SKC,0.02,VWS V14.01,2013-02-12 11:43:00,
2013-02-12 06:48:00,50.3,49.2,30.03,SW,224,0.0,4.0,96,0.00,,SKC,0.02,VWS V14.01,2013-02-12 11:48:00,
2013-02-12 06:53:00,50.3,49.2,30.04,SW,224,0.0,4.0,96,0.00,,SKC,0.02,VWS V14.01,2013-02-12 11:53:00,
2013-02-12 06:58:00,50.3,49.2,30.05,SW,224,0.0,4.0,96,0.01,,SKC,0.03,VWS V14.01,2013-02-12 11:58:00,
2013-02-12 07:00:00,49.8,48.7,30.07,SW,224,0.0,3.0,96,0.02,,SKC,0.04,VWS V14.01,2013-02-12 12:00:00,
2013-02-12 07:03:00,50.3,49.2,30.04,SW,224,0.0,2.0,96,0.01,,SKC,0.03,VWS V14.01,2013-02-12 12:03:00,
2013-02-12 07:08:00,50.2,49.1,30.05,SW,224,0.0,2.0,96,0.01,,SKC,0.03,VWS V14.01,2013-02-12 12:08:00,
2013-02-12 07:13:00,50.1,49.0,30.05,SW,224,0.0,2.0,96,0.01,,SKC,0.03,VWS V14.01,2013-02-12 12:13:00,
2013-02-12 07:18:00,50.1,49.0,30.06,SW,224,0.0,2.0,96,0.02,,SKC,0.04,VWS V14.01,2013-02-12 12:18:00,
2013-02-12 07:23:00,50.0,48.9,30.05,SW,224,0.0,2.0,96,0.02,,SKC,0.04,VWS V14.01,2013-02-12 12:23:00,
2013-02-12 07:28:00,49.9,48.8,30.06,SW,224,1.0,3.0,96,0.02,,SKC,0.04,VWS V14.01,2013-02-12 12:28:00,
2013-02-12 07:33:00,50.0,48.9,30.07,SW,224,0.0,3.0,96,0.02,,SKC,0.04,VWS V14.01,2013-02-12 12:33:00,
2013-02-12 07:38:00,49.9,48.8,30.07,SW,224,1.0,3.0,96,0.02,,SKC,0.04,VWS V14.01,2013-02-12 12:38:00,
2013-02-12 07:43:00,49.9,48.8,30.07,SW,224,1.0,3.0,96,0.02,,SKC,0.04,VWS V14.01,2013-02-12 12:43:00,
2013-02-12 07:48:00,49.9,48.8,30.07,SW,224,1.0,3.0,96,0.02,,SKC,0.04,VWS V14.01,2013-02-12 12:48:00,
2013-02-12 07:53:00,49.8,48.7,30.08,SW,224,0.0,3.0,96,0.02,,SKC,0.04,VWS V14.01,2013-02-12 12:53:00,
2013-02-12 07:58:00,49.8,48.7,30.07,SW,224,0.0,3.0,96,0.02,,SKC,0.04,VWS V14.01,2013-02-12 12:58:00,
2013-02-12 08:00:00,50.1,49.3,30.11,WSW,244,2.0,5.0,97,0.01,,SKC,0.04,VWS V14.01,2013-02-12 13:00:00,
2013-02-12 08:03:00,49.9,48.8,30.08,WSW,242,0.0,3.0,96,0.01,,SKC,0.04,VWS V14.01,2013-02-12 13:03:00,
2013-02-12 08:08:00,49.8,48.7,30.08,WSW,243,0.0,3.0,96,0.01,,SKC,0.04,VWS V14.01,2013-02-12 13:08:00,
2013-02-12 08:13:00,49.9,48.8,30.08,WSW,243,0.0,3.0,96,0.01,,SKC,0.04,VWS V14.01,2013-02-12 13:13:00,
2013-02-12 08:18:00,49.9,48.8,30.08,WSW,243,0.0,3.0,96,0.01,,SKC,0.04,VWS V14.01,2013-02-12 13:18:00,
2013-02-12 08:23:00,49.9,48.8,30.08,WSW,242,2.0,3.0,96,0.01,,SKC,0.04,VWS V14.01,2013-02-12 13:23:00,
2013-02-12 08:28:00,49.9,48.8,30.08,WSW,242,0.0,3.0,96,0.01,,SKC,0.04,VWS V14.01,2013-02-12 13:28:00,
2013-02-12 08:33:00,49.9,49.1,30.10,WSW,242,0.0,3.0,97,0.01,,SKC,0.04,VWS V14.01,2013-02-12 13:33:00,
2013-02-12 08:38:00,50.0,50.0,30.10,SW,235,2.0,3.0,100,0.01,,SKC,0.04,VWS V14.01,2013-02-12 13:38:00,
2013-02-12 08:43:00,49.9,49.1,30.10,SW,219,0.0,5.0,97,0.01,,SKC,0.04,VWS V14.01,2013-02-12 13:43:00,
2013-02-12 08:48:00,49.9,49.1,30.10,SW,222,1.0,5.0,97,0.01,,SKC,0.04,VWS V14.01,2013-02-12 13:48:00,
2013-02-12 08:53:00,50.0,49.2,30.11,SW,219,0.0,5.0,97,0.01,,SKC,0.04,VWS V14.01,2013-02-12 13:53:00,
2013-02-12 08:58:00,50.1,49.3,30.11,WSW,244,2.0,5.0,97,0.01,,SKC,0.04,VWS V14.01,2013-02-12 13:58:00,
2013-02-12 09:00:00,51.4,50.0,30.08,West,266,1.0,4.0,95,0.00,,SKC,0.04,VWS V14.01,2013-02-12 14:00:00,
2013-02-12 09:03:00,50.1,49.3,30.11,SW,227,0.0,3.0,97,0.00,,SKC,0.04,VWS V14.01,2013-02-12 14:03:00,
2013-02-12 09:08:00,50.1,49.3,30.11,SW,227,1.0,3.0,97,0.00,,SKC,0.04,VWS V14.01,2013-02-12 14:08:00,
2013-02-12 09:13:00,50.1,49.3,30.10,SW,227,0.0,3.0,97,0.00,,SKC,0.04,VWS V14.01,2013-02-12 14:13:00,
2013-02-12 09:18:00,50.3,49.5,30.11,SW,232,0.0,3.0,97,0.00,,SKC,0.04,VWS V14.01,2013-02-12 14:18:00,
2013-02-12 09:23:00,50.5,49.7,30.10,SW,232,0.0,3.0,97,0.00,,SKC,0.04,VWS V14.01,2013-02-12 14:23:00,
2013-02-12 09:28:00,50.6,49.8,30.10,SW,233,1.0,3.0,97,0.00,,SKC,0.04,VWS V14.01,2013-02-12 14:28:00,
2013-02-12 09:33:00,50.7,49.6,30.10,WSW,240,0.0,3.0,96,0.00,,SKC,0.04,VWS V14.01,2013-02-12 14:33:00,
2013-02-12 09:38:00,50.8,49.7,30.10,WSW,257,2.0,3.0,96,0.00,,SKC,0.04,VWS V14.01,2013-02-12 14:38:00,
2013-02-12 09:43:00,50.9,49.8,30.10,WNW,284,4.0,4.0,96,0.00,,SKC,0.04,VWS V14.01,2013-02-12 14:43:00,
2013-02-12 09:48:00,51.0,49.9,30.09,WNW,283,0.0,4.0,96,0.00,,SKC,0.04,VWS V14.01,2013-02-12 14:48:00,
2013-02-12 09:53:00,51.2,49.8,30.08,WNW,283,0.0,4.0,95,0.00,,SKC,0.04,VWS V14.01,2013-02-12 14:53:00,
2013-02-12 09:58:00,51.2,49.8,30.07,West,265,0.0,4.0,95,0.00,,SKC,0.04,VWS V14.01,2013-02-12 14:58:00,
2013-02-12 10:00:00,55.1,51.0,30.08,WNW,303,0.0,4.0,86,0.00,,SKC,0.04,VWS V14.01,2013-02-12 15:00:00,
2013-02-12 10:03:00,51.4,50.0,30.07,West,269,0.0,3.0,95,0.00,,SKC,0.04,VWS V14.01,2013-02-12 15:03:00,
2013-02-12 10:08:00,51.5,49.8,30.07,West,269,0.0,3.0,94,0.00,,SKC,0.04,VWS V14.01,2013-02-12 15:08:00,
2013-02-12 10:13:00,52.0,50.3,30.06,West,269,0.0,3.0,94,0.00,,SKC,0.04,VWS V14.01,2013-02-12 15:13:00,
2013-02-12 10:18:00,52.2,50.2,30.05,West,269,0.0,3.0,93,0.00,,SKC,0.04,VWS V14.01,2013-02-12 15:18:00,
2013-02-12 10:23:00,52.6,50.3,30.06,West,269,0.0,3.0,92,0.00,,SKC,0.04,VWS V14.01,2013-02-12 15:23:00,
2013-02-12 10:28:00,53.1,50.5,30.06,ENE,71,1.0,3.0,91,0.00,,SKC,0.04,VWS V14.01,2013-02-12 15:28:00,
2013-02-12 10:33:00,53.7,50.8,30.06,ENE,71,0.0,3.0,90,0.00,,SKC,0.04,VWS V14.01,2013-02-12 15:33:00,
2013-02-12 10:38:00,54.2,50.7,30.06,East,94,1.0,4.0,88,0.00,,SKC,0.04,VWS V14.01,2013-02-12 15:38:00,
2013-02-12 10:43:00,54.2,50.4,30.07,ENE,61,1.0,4.0,87,0.00,,SKC,0.04,VWS V14.01,2013-02-12 15:43:00,
2013-02-12 10:48:00,54.4,50.3,30.07,ENE,60,2.0,4.0,86,0.00,,SKC,0.04,VWS V14.01,2013-02-12 15:48:00,
2013-02-12 10:53:00,54.3,49.9,30.07,East,94,0.0,4.0,85,0.00,,SKC,0.04,VWS V14.01,2013-02-12 15:53:00,
2013-02-12 10:58:00,54.8,51.0,30.08,NW,315,2.0,4.0,87,0.00,,SKC,0.04,VWS V14.01,2013-02-12 15:58:00,
2013-02-12 11:00:00,59.0,48.5,30.05,WSW,250,0.0,5.0,68,0.00,,SKC,0.04,VWS V14.01,2013-02-12 16:00:00,
2013-02-12 11:03:00,55.1,51.0,30.08,WNW,303,0.0,2.0,86,0.00,,SKC,0.04,VWS V14.01,2013-02-12 16:03:00,
2013-02-12 11:08:00,55.6,51.5,30.07,WNW,303,0.0,2.0,86,0.00,,SKC,0.04,VWS V14.01,2013-02-12 16:08:00,
2013-02-12 11:13:00,56.4,52.0,30.06,WNW,303,0.0,2.0,85,0.00,,SKC,0.04,VWS V14.01,2013-02-12 16:13:00,
2013-02-12 11:18:00,57.1,52.0,30.06,NW,324,1.0,2.0,83,0.00,,SKC,0.04,VWS V14.01,2013-02-12 16:18:00,
2013-02-12 11:23:00,56.9,50.8,30.06,West,268,0.0,5.0,80,0.00,,SKC,0.04,VWS V14.01,2013-02-12 16:23:00,
2013-02-12 11:28:00,57.2,51.8,30.06,West,268,0.0,5.0,82,0.00,,SKC,0.04,VWS V14.01,2013-02-12 16:28:00,
2013-02-12 11:33:00,57.7,50.2,30.05,North,5,0.0,5.0,76,0.00,,SKC,0.04,VWS V14.01,2013-02-12 16:33:00,
2013-02-12 11:38:00,58.4,50.5,30.05,North,5,0.0,5.0,75,0.00,,SKC,0.04,VWS V14.01,2013-02-12 16:38:00,
2013-02-12 11:43:00,59.0,50.7,30.05,ENE,62,3.0,5.0,74,0.00,,SKC,0.04,VWS V14.01,2013-02-12 16:43:00,
2013-02-12 11:48:00,59.3,51.4,30.05,NE,42,1.0,5.0,75,0.00,,SKC,0.04,VWS V14.01,2013-02-12 16:48:00,
2013-02-12 11:53:00,59.5,50.1,30.05,NNE,30,0.0,5.0,71,0.00,,SKC,0.04,VWS V14.01,2013-02-12 16:53:00,
2013-02-12 11:58:00,59.0,48.9,30.05,WSW,250,0.0,5.0,69,0.00,,SKC,0.04,VWS V14.01,2013-02-12 16:58:00,
2013-02-12 12:00:00,60.4,46.0,30.03,West,273,1.0,4.0,59,0.00,,-RA,0.04,VWS V14.01,2013-02-12 17:00:00,
2013-02-12 12:03:00,59.4,49.2,30.05,WSW,250,0.0,2.0,69,0.00,,SKC,0.04,VWS V14.01,2013-02-12 17:03:00,
2013-02-12 12:08:00,60.0,50.6,30.04,WSW,237,1.0,3.0,71,0.00,,SKC,0.04,VWS V14.01,2013-02-12 17:08:00,
2013-02-12 12:13:00,60.0,49.4,30.04,SSW,211,1.0,4.0,68,0.00,,SKC,0.04,VWS V14.01,2013-02-12 17:13:00,
2013-02-12 12:18:00,59.6,48.6,30.03,SW,229,1.0,4.0,67,0.00,,SKC,0.04,VWS V14.01,2013-02-12 17:18:00,
2013-02-12 12:23:00,59.6,48.2,30.04,SW,229,1.0,4.0,66,0.00,,SKC,0.04,VWS V14.01,2013-02-12 17:23:00,
2013-02-12 12:28:00,60.0,47.8,30.04,East,94,0.0,4.0,64,0.00,,SKC,0.04,VWS V14.01,2013-02-12 17:28:00,
2013-02-12 12:33:00,60.4,47.8,30.04,NE,47,0.0,4.0,63,0.00,,SKC,0.04,VWS V14.01,2013-02-12 17:33:00,
2013-02-12 12:38:00,60.4,48.6,30.04,North,10,0.0,4.0,65,0.00,,SKC,0.04,VWS V14.01,2013-02-12 17:38:00,
2013-02-12 12:43:00,60.7,49.3,30.04,North,10,0.0,4.0,66,0.00,,SKC,0.04,VWS V14.01,2013-02-12 17:43:00,
2013-02-12 12:48:00,60.9,48.7,30.04,WSW,246,0.0,4.0,64,0.00,,SKC,0.04,VWS V14.01,2013-02-12 17:48:00,
2013-02-12 12:53:00,60.7,48.0,30.04,West,273,0.0,4.0,63,0.00,,SKC,0.04,VWS V14.01,2013-02-12 17:53:00,
2013-02-12 12:58:00,60.5,47.0,30.03,West,273,0.0,4.0,61,0.00,,SKC,0.04,VWS V14.01,2013-02-12 17:58:00,
2013-02-12 13:00:00,60.5,44.3,30.00,WNW,302,1.0,4.0,55,0.00,,SKC,0.04,VWS V14.01,2013-02-12 18:00:00,
2013-02-12 13:03:00,60.2,45.4,30.02,NNW,348,1.0,2.0,58,0.00,,SKC,0.04,VWS V14.01,2013-02-12 18:03:00,
2013-02-12 13:08:00,60.1,45.3,30.02,NNW,348,0.0,2.0,58,0.00,,SKC,0.04,VWS V14.01,2013-02-12 18:08:00,
2013-02-12 13:13:00,60.2,45.4,30.01,NNW,348,0.0,2.0,58,0.00,,SKC,0.04,VWS V14.01,2013-02-12 18:13:00,
2013-02-12 13:18:00,60.2,45.8,30.00,North,355,0.0,2.0,59,0.00,,SKC,0.04,VWS V14.01,2013-02-12 18:18:00,
2013-02-12 13:23:00,60.0,46.5,29.99,ENE,58,0.0,2.0,61,0.00,,SKC,0.04,VWS V14.01,2013-02-12 18:23:00,
2013-02-12 13:28:00,60.0,46.5,30.00,ENE,58,1.0,3.0,61,0.00,,SKC,0.04,VWS V14.01,2013-02-12 18:28:00,
2013-02-12 13:33:00,60.0,46.1,30.00,ENE,58,0.0,3.0,60,0.00,,SKC,0.04,VWS V14.01,2013-02-12 18:33:00,
2013-02-12 13:38:00,60.0,47.0,30.00,ENE,58,0.0,3.0,62,0.00,,SKC,0.04,VWS V14.01,2013-02-12 18:38:00,
2013-02-12 13:43:00,60.3,46.4,30.00,ENE,58,0.0,3.0,60,0.00,,SKC,0.04,VWS V14.01,2013-02-12 18:43:00,
2013-02-12 13:48:00,60.4,46.5,30.00,ENE,58,0.0,3.0,60,0.00,,SKC,0.04,VWS V14.01,2013-02-12 18:48:00,
2013-02-12 13:53:00,60.5,46.1,30.00,West,281,1.0,3.0,59,0.00,,SKC,0.04,VWS V14.01,2013-02-12 18:53:00,
2013-02-12 13:58:00,60.5,45.2,30.00,North,11,0.0,4.0,57,0.00,,SKC,0.04,VWS V14.01,2013-02-12 18:58:00,
2013-02-12 14:00:00,60.7,44.0,29.97,ENE,61,0.0,5.0,54,0.00,,SKC,0.04,VWS V14.01,2013-02-12 19:00:00,
2013-02-12 14:03:00,60.4,45.1,30.00,WNW,301,3.0,3.0,57,0.00,,SKC,0.04,VWS V14.01,2013-02-12 19:03:00,
2013-02-12 14:08:00,60.3,44.1,30.00,NW,321,0.0,4.0,55,0.00,,SKC,0.04,VWS V14.01,2013-02-12 19:08:00,
2013-02-12 14:13:00,60.2,44.5,30.01,NW,321,0.0,4.0,56,0.00,,SKC,0.04,VWS V14.01,2013-02-12 19:13:00,
2013-02-12 14:18:00,60.2,44.5,30.01,NW,321,0.0,4.0,56,0.00,,SKC,0.04,VWS V14.01,2013-02-12 19:18:00,
2013-02-12 14:23:00,60.2,45.4,30.00,NW,321,0.0,4.0,58,0.00,,SKC,0.04,VWS V14.01,2013-02-12 19:23:00,
2013-02-12 14:28:00,60.4,46.9,29.99,SW,224,1.0,4.0,61,0.00,,SKC,0.04,VWS V14.01,2013-02-12 19:28:00,
2013-02-12 14:33:00,60.7,46.3,29.98,SW,225,0.0,4.0,59,0.00,,SKC,0.04,VWS V14.01,2013-02-12 19:33:00,
2013-02-12 14:38:00,61.0,45.2,29.98,SW,227,0.0,4.0,56,0.00,,SKC,0.04,VWS V14.01,2013-02-12 19:38:00,
2013-02-12 14:43:00,61.4,46.0,29.97,ESE,117,4.0,4.0,57,0.00,,SKC,0.04,VWS V14.01,2013-02-12 19:43:00,
2013-02-12 14:48:00,61.3,44.5,29.97,SE,136,0.0,5.0,54,0.00,,SKC,0.04,VWS V14.01,2013-02-12 19:48:00,
2013-02-12 14:53:00,61.3,44.0,29.96,NNE,19,2.0,5.0,53,0.00,,SKC,0.04,VWS V14.01,2013-02-12 19:53:00,
2013-02-12 14:58:00,60.9,44.2,29.97,ENE,61,1.0,5.0,54,0.00,,SKC,0.04,VWS V14.01,2013-02-12 19:58:00,
2013-02-12 15:00:00,59.4,45.5,29.95,NNE,31,0.0,4.0,60,0.00,,SKC,0.04,VWS V14.01,2013-02-12 20:00:00,
2013-02-12 15:03:00,60.6,43.9,29.98,ENE,61,1.0,4.0,54,0.00,,SKC,0.04,VWS V14.01,2013-02-12 20:03:00,
2013-02-12 15:08:00,60.4,44.2,29.98,ENE,61,0.0,4.0,55,0.00,,SKC,0.04,VWS V14.01,2013-02-12 20:08:00,
2013-02-12 15:13:00,60.3,44.6,29.99,ENE,61,0.0,4.0,56,0.00,,SKC,0.04,VWS V14.01,2013-02-12 20:13:00,
2013-02-12 15:18:00,60.3,45.0,29.98,ENE,61,0.0,4.0,57,0.00,,SKC,0.04,VWS V14.01,2013-02-12 20:18:00,
2013-02-12 15:23:00,60.4,45.1,29.97,ENE,61,0.0,4.0,57,0.00,,SKC,0.04,VWS V14.01,2013-02-12 20:23:00,
2013-02-12 15:28:00,60.3,45.0,29.97,ENE,61,0.0,4.0,57,0.00,,SKC,0.04,VWS V14.01,2013-02-12 20:28:00,
2013-02-12 15:33:00,60.5,46.1,29.97,NNW,340,1.0,4.0,59,0.00,,SKC,0.04,VWS V14.01,2013-02-12 20:33:00,
2013-02-12 15:38:00,60.6,45.3,29.97,North,5,0.0,4.0,57,0.00,,SKC,0.04,VWS V14.01,2013-02-12 20:38:00,
2013-02-12 15:43:00,60.5,46.1,29.97,North,5,1.0,4.0,59,0.00,,SKC,0.04,VWS V14.01,2013-02-12 20:43:00,
2013-02-12 15:48:00,60.3,46.4,29.97,NNW,333,1.0,4.0,60,0.00,,SKC,0.04,VWS V14.01,2013-02-12 20:48:00,
2013-02-12 15:53:00,59.9,45.5,29.96,NNW,342,1.0,4.0,59,0.00,,SKC,0.04,VWS V14.01,2013-02-12 20:53:00,
2013-02-12 15:58:00,59.6,46.2,29.95,NNE,30,0.0,4.0,61,0.00,,SKC,0.04,VWS V14.01,2013-02-12 20:58:00,
2013-02-12 16:00:00,57.4,46.5,29.94,ENE,69,1.0,5.0,67,0.00,,SKC,0.04,VWS V14.01,2013-02-12 21:00:00,
2013-02-12 16:03:00,59.3,45.4,29.95,NE,49,0.0,2.0,60,0.00,,SKC,0.04,VWS V14.01,2013-02-12 21:03:00,
2013-02-12 16:08:00,59.0,45.6,29.96,NE,48,0.0,3.0,61,0.00,,SKC,0.04,VWS V14.01,2013-02-12 21:08:00,
2013-02-12 16:13:00,59.0,46.4,29.96,NE,48,1.0,3.0,63,0.00,,SKC,0.04,VWS V14.01,2013-02-12 21:13:00,
2013-02-12 16:18:00,59.0,46.4,29.97,NW,325,4.0,5.0,63,0.00,,SKC,0.04,VWS V14.01,2013-02-12 21:18:00,
2013-02-12 16:23:00,58.6,46.5,29.97,NW,323,1.0,5.0,64,0.00,,SKC,0.04,VWS V14.01,2013-02-12 21:23:00,
2013-02-12 16:28:00,58.4,47.1,29.97,NNW,336,0.0,5.0,66,0.00,,SKC,0.04,VWS V14.01,2013-02-12 21:28:00,
2013-02-12 16:33:00,58.2,46.9,29.96,NNW,338,1.0,5.0,66,0.00,,SKC,0.04,VWS V14.01,2013-02-12 21:33:00,
2013-02-12 16:38:00,58.0,46.3,29.95,NE,38,0.0,5.0,65,0.00,,SKC,0.04,VWS V14.01,2013-02-12 21:38:00,
2013-02-12 16:43:00,57.9,47.0,29.94,NE,36,0.0,5.0,67,0.00,,SKC,0.04,VWS V14.01,2013-02-12 21:43:00,
2013-02-12 16:48:00,57.6,46.7,29.95,NE,36,1.0,5.0,67,0.00,,SKC,0.04,VWS V14.01,2013-02-12 21:48:00,
2013-02-12 16:53:00,57.5,46.2,29.95,NE,36,1.0,5.0,66,0.00,,SKC,0.04,VWS V14.01,2013-02-12 21:53:00,
2013-02-12 16:58:00,57.4,46.5,29.95,ENE,69,0.0,5.0,67,0.00,,SKC,0.04,VWS V14.01,2013-02-12 21:58:00,
2013-02-12 17:00:00,55.9,48.1,29.95,ENE,57,0.0,4.0,75,0.00,,SKC,0.04,VWS V14.01,2013-02-12 22:00:00,
2013-02-12 17:03:00,57.4,46.2,29.95,ENE,69,0.0,3.0,66,0.00,,SKC,0.04,VWS V14.01,2013-02-12 22:03:00,
2013-02-12 17:08:00,57.3,46.0,29.95,ENE,69,0.0,3.0,66,0.00,,SKC,0.04,VWS V14.01,2013-02-12 22:08:00,
2013-02-12 17:13:00,57.1,46.3,29.94,ENE,69,1.0,3.0,67,0.00,,SKC,0.04,VWS V14.01,2013-02-12 22:13:00,
2013-02-12 17:18:00,56.9,46.5,29.93,ENE,59,1.0,4.0,68,0.00,,SKC,0.04,VWS V14.01,2013-02-12 22:18:00,
2013-02-12 17:23:00,56.7,46.7,29.93,NE,56,1.0,4.0,69,0.00,,SKC,0.04,VWS V14.01,2013-02-12 22:23:00,
2013-02-12 17:28:00,56.5,46.5,29.94,ENE,57,0.0,4.0,69,0.00,,SKC,0.04,VWS V14.01,2013-02-12 22:28:00,
2013-02-12 17:33:00,56.4,46.8,29.94,ENE,57,0.0,4.0,70,0.00,,SKC,0.04,VWS V14.01,2013-02-12 22:33:00,
2013-02-12 17:38:00,56.3,47.0,29.95,ENE,57,0.0,4.0,71,0.00,,SKC,0.04,VWS V14.01,2013-02-12 22:38:00,
2013-02-12 17:43:00,56.3,47.0,29.95,ENE,57,0.0,4.0,71,0.00,,SKC,0.04,VWS V14.01,2013-02-12 22:43:00,
2013-02-12 17:48:00,56.2,47.3,29.95,ENE,57,0.0,4.0,72,0.00,,SKC,0.04,VWS V14.01,2013-02-12 22:48:00,
2013-02-12 17:53:00,56.2,47.7,29.95,ENE,57,0.0,4.0,73,0.00,,SKC,0.04,VWS V14.01,2013-02-12 22:53:00,
2013-02-12 17:58:00,56.0,47.8,29.95,ENE,57,0.0,4.0,74,0.00,,SKC,0.04,VWS V14.01,2013-02-12 22:58:00,
2013-02-12 18:00:00,53.4,49.0,29.93,ENE,57,0.0,2.0,85,0.00,,SKC,0.04,VWS V14.01,2013-02-12 23:00:00,
2013-02-12 18:03:00,55.8,47.7,29.95,ENE,57,0.0,0.0,74,0.00,,SKC,0.04,VWS V14.01,2013-02-12 23:03:00,
2013-02-12 18:08:00,55.6,47.5,29.95,ENE,57,0.0,0.0,74,0.00,,SKC,0.04,VWS V14.01,2013-02-12 23:08:00,
2013-02-12 18:13:00,55.3,46.8,29.95,ENE,57,0.0,1.0,73,0.00,,SKC,0.04,VWS V14.01,2013-02-12 23:13:00,
2013-02-12 18:18:00,55.1,47.3,29.94,ENE,57,0.0,1.0,75,0.00,,SKC,0.04,VWS V14.01,2013-02-12 23:18:00,
2013-02-12 18:22:00,54.9,47.1,29.95,ENE,57,0.0,1.0,75,0.00,,SKC,0.04,VWS V14.01,2013-02-12 23:22:00,
2013-02-12 18:27:00,54.9,47.1,29.95,ENE,57,0.0,1.0,75,0.00,,SKC,0.04,VWS V14.01,2013-02-12 23:27:00,
2013-02-12 18:32:00,54.8,48.8,29.97,ENE,57,0.0,2.0,80,0.00,,SKC,0.04,VWS V14.01,2013-02-12 23:32:00,
2013-02-12 18:37:00,54.5,48.8,29.96,ENE,57,0.0,2.0,81,0.00,,SKC,0.04,VWS V14.01,2013-02-12 23:37:00,
2013-02-12 18:42:00,54.4,48.7,29.94,ENE,57,0.0,2.0,81,0.00,,SKC,0.04,VWS V14.01,2013-02-12 23:42:00,
2013-02-12 18:47:00,53.9,48.5,29.94,ENE,57,0.0,2.0,82,0.00,,SKC,0.04,VWS V14.01,2013-02-12 23:47:00,
2013-02-12 18:52:00,53.6,48.6,29.94,ENE,57,0.0,2.0,83,0.00,,SKC,0.04,VWS V14.01,2013-02-12 23:52:00,
2013-02-12 18:57:00,53.5,48.8,29.93,ENE,57,0.0,2.0,84,0.00,,SKC,0.04,VWS V14.01,2013-02-12 23:57:00,
2013-02-12 19:00:00,52.4,49.0,29.93,East,88,2.0,5.0,88,0.00,,SKC,0.04,VWS V14.01,2013-02-13 00:00:00,
2013-02-12 19:02:00,53.4,49.0,29.93,ENE,57,0.0,0.0,85,0.00,,SKC,0.04,VWS V14.01,2013-02-13 00:02:00,
2013-02-12 19:07:00,53.3,48.9,29.93,ENE,58,0.0,3.0,85,0.00,,SKC,0.04,VWS V14.01,2013-02-13 00:07:00,
2013-02-12 19:12:00,53.2,48.5,29.92,ENE,65,1.0,4.0,84,0.00,,SKC,0.04,VWS V14.01,2013-02-13 00:12:00,
2013-02-12 19:17:00,53.1,48.7,29.91,ENE,69,4.0,5.0,85,0.00,,SKC,0.04,VWS V14.01,2013-02-13 00:17:00,
2013-02-12 19:22:00,52.7,48.6,29.90,ENE,75,4.0,5.0,86,0.00,,SKC,0.04,VWS V14.01,2013-02-13 00:22:00,
2013-02-12 19:27:00,52.6,48.5,29.91,East,88,1.0,5.0,86,0.00,,SKC,0.04,VWS V14.01,2013-02-13 00:27:00,
2013-02-12 19:32:00,52.6,48.2,29.92,East,88,0.0,5.0,85,0.00,,SKC,0.04,VWS V14.01,2013-02-13 00:32:00,
2013-02-12 19:37:00,52.8,48.4,29.92,East,88,0.0,5.0,85,0.00,,SKC,0.04,VWS V14.01,2013-02-13 00:37:00,
2013-02-12 19:42:00,52.9,48.5,29.93,East,88,0.0,5.0,85,0.00,,SKC,0.04,VWS V14.01,2013-02-13 00:42:00,
2013-02-12 19:47:00,53.0,48.9,29.94,East,88,0.0,5.0,86,0.00,,SKC,0.04,VWS V14.01,2013-02-13 00:47:00,
2013-02-12 19:52:00,53.0,48.9,29.94,East,88,0.0,5.0,86,0.00,,SKC,0.04,VWS V14.01,2013-02-13 00:52:00,
2013-02-12 19:57:00,52.8,49.0,29.94,East,88,0.0,5.0,87,0.00,,SKC,0.04,VWS V14.01,2013-02-13 00:57:00,
2013-02-12 20:00:00,50.5,48.3,29.94,ENE,67,3.0,4.0,92,0.03,,SKC,0.07,VWS V14.01,2013-02-13 01:00:00,
2013-02-12 20:02:00,52.1,48.7,29.93,East,88,2.0,2.0,88,0.00,,SKC,0.04,VWS V14.01,2013-02-13 01:02:00,
2013-02-12 20:07:00,51.8,49.0,29.93,East,88,0.0,2.0,90,0.00,,SKC,0.04,VWS V14.01,2013-02-13 01:07:00,
2013-02-12 20:12:00,51.5,48.7,29.94,East,88,0.0,2.0,90,0.00,,SKC,0.04,VWS V14.01,2013-02-13 01:12:00,
2013-02-12 20:17:00,51.4,48.6,29.94,East,88,0.0,2.0,90,0.00,,SKC,0.04,VWS V14.01,2013-02-13 01:17:00,
2013-02-12 20:22:00,51.4,48.9,29.94,East,88,0.0,2.0,91,0.00,,SKC,0.04,VWS V14.01,2013-02-13 01:22:00,
2013-02-12 20:27:00,51.4,48.6,29.95,East,88,0.0,2.0,90,0.00,,SKC,0.04,VWS V14.01,2013-02-13 01:27:00,
2013-02-12 20:32:00,51.5,48.7,29.93,East,88,2.0,3.0,90,0.00,,SKC,0.04,VWS V14.01,2013-02-13 01:32:00,
2013-02-12 20:37:00,51.3,48.5,29.93,East,88,1.0,3.0,90,0.00,,SKC,0.04,VWS V14.01,2013-02-13 01:37:00,
2013-02-12 20:42:00,51.2,48.4,29.94,East,88,0.0,3.0,90,0.01,,SKC,0.05,VWS V14.01,2013-02-13 01:42:00,
2013-02-12 20:47:00,51.1,48.3,29.94,East,88,1.0,3.0,90,0.02,,SKC,0.06,VWS V14.01,2013-02-13 01:47:00,
2013-02-12 20:52:00,50.9,48.4,29.94,NNE,24,2.0,4.0,91,0.03,,SKC,0.07,VWS V14.01,2013-02-13 01:52:00,
2013-02-12 20:57:00,50.6,48.1,29.95,North,5,0.0,4.0,91,0.03,,SKC,0.07,VWS V14.01,2013-02-13 01:57:00,
2013-02-12 21:00:00,49.3,47.7,29.92,NE,48,2.0,5.0,94,0.15,,SKC,0.19,VWS V14.01,2013-02-13 02:00:00,
2013-02-12 21:02:00,50.4,48.2,29.94,ENE,67,0.0,2.0,92,0.03,,SKC,0.07,VWS V14.01,2013-02-13 02:02:00,
2013-02-12 21:07:00,50.3,48.1,29.94,ENE,67,2.0,3.0,92,0.04,,SKC,0.08,VWS V14.01,2013-02-13 02:07:00,
2013-02-12 21:12:00,50.2,48.0,29.94,ENE,67,0.0,3.0,92,0.05,,SKC,0.09,VWS V14.01,2013-02-13 02:12:00,
2013-02-12 21:17:00,50.2,48.0,29.94,East,82,2.0,4.0,92,0.05,,SKC,0.09,VWS V14.01,2013-02-13 02:17:00,
2013-02-12 21:22:00,50.1,47.9,29.95,ENE,77,2.0,4.0,92,0.06,,SKC,0.10,VWS V14.01,2013-02-13 02:22:00,
2013-02-12 21:27:00,50.1,47.9,29.95,ENE,77,0.0,4.0,92,0.07,,SKC,0.11,VWS V14.01,2013-02-13 02:27:00,
2013-02-12 21:32:00,50.0,47.8,29.97,ENE,77,0.0,4.0,92,0.09,,SKC,0.13,VWS V14.01,2013-02-13 02:32:00,
2013-02-12 21:37:00,50.0,47.8,29.95,ENE,69,0.0,4.0,92,0.10,,SKC,0.14,VWS V14.01,2013-02-13 02:37:00,
2013-02-12 21:42:00,50.0,48.1,29.95,ENE,69,0.0,4.0,93,0.11,,SKC,0.15,VWS V14.01,2013-02-13 02:42:00,
2013-02-12 21:47:00,49.7,47.8,29.94,ENE,69,1.0,4.0,93,0.12,,SKC,0.16,VWS V14.01,2013-02-13 02:47:00,
2013-02-12 21:52:00,49.5,47.8,29.94,ENE,67,2.0,5.0,94,0.13,,SKC,0.17,VWS V14.01,2013-02-13 02:52:00,
2013-02-12 21:57:00,49.4,47.8,29.92,ENE,69,2.0,5.0,94,0.14,,SKC,0.18,VWS V14.01,2013-02-13 02:57:00,
2013-02-12 22:00:00,48.3,46.7,29.90,NE,44,2.0,11.0,94,0.16,,SKC,0.23,VWS V14.01,2013-02-13 03:00:00,
2013-02-12 22:02:00,49.2,47.5,29.92,NE,47,0.0,4.0,94,0.13,,SKC,0.20,VWS V14.01,2013-02-13 03:02:00,
2013-02-12 22:07:00,49.2,47.5,29.92,ENE,59,3.0,5.0,94,0.13,,SKC,0.20,VWS V14.01,2013-02-13 03:07:00,
2013-02-12 22:12:00,49.1,47.5,29.92,East,82,3.0,6.0,94,0.13,,SKC,0.20,VWS V14.01,2013-02-13 03:12:00,
2013-02-12 22:17:00,49.0,47.3,29.92,East,89,4.0,9.0,94,0.14,,SKC,0.21,VWS V14.01,2013-02-13 03:17:00,
2013-02-12 22:22:00,48.9,47.2,29.91,ENE,62,6.0,9.0,94,0.14,,SKC,0.21,VWS V14.01,2013-02-13 03:22:00,
2013-02-12 22:27:00,48.8,47.2,29.91,East,90,1.0,9.0,94,0.14,,SKC,0.21,VWS V14.01,2013-02-13 03:27:00,
2013-02-12 22:32:00,48.8,47.2,29.92,East,93,2.0,9.0,94,0.14,,SKC,0.21,VWS V14.01,2013-02-13 03:32:00,
2013-02-12 22:37:00,48.9,47.2,29.92,ENE,74,3.0,9.0,94,0.14,,SKC,0.21,VWS V14.01,2013-02-13 03:37:00,
2013-02-12 22:42:00,48.8,47.2,29.88,ENE,69,5.0,10.0,94,0.14,,SKC,0.21,VWS V14.01,2013-02-13 03:42:00,
2013-02-12 22:47:00,48.6,47.0,29.87,ENE,71,6.0,11.0,94,0.15,,SKC,0.22,VWS V14.01,2013-02-13 03:47:00,
2013-02-12 22:52:00,48.4,46.8,29.87,NE,42,4.0,11.0,94,0.15,,SKC,0.22,VWS V14.01,2013-02-13 03:52:00,
2013-02-12 22:57:00,48.4,46.8,29.89,NE,42,1.0,11.0,94,0.16,,SKC,0.23,VWS V14.01,2013-02-13 03:57:00,
2013-02-12 23:00:00,48.0,46.6,29.87,NNE,30,0.0,6.0,95,0.06,,SKC,0.25,VWS V14.01,2013-02-13 04:00:00,
2013-02-12 23:02:00,48.3,46.7,29.90,NE,44,0.0,3.0,94,0.04,,SKC,0.23,VWS V14.01,2013-02-13 04:02:00,
2013-02-12 23:07:00,48.3,46.7,29.90,NE,44,0.0,3.0,94,0.04,,SKC,0.23,VWS V14.01,2013-02-13 04:07:00,
2013-02-12 23:12:00,48.3,46.7,29.90,NE,44,0.0,3.0,94,0.04,,SKC,0.23,VWS V14.01,2013-02-13 04:12:00,
2013-02-12 23:17:00,48.4,46.8,29.90,NE,44,0.0,3.0,94,0.04,,SKC,0.23,VWS V14.01,2013-02-13 04:17:00,
2013-02-12 23:22:00,48.5,46.9,29.91,NW,319,0.0,3.0,94,0.04,,SKC,0.23,VWS V14.01,2013-02-13 04:22:00,
2013-02-12 23:27:00,48.5,46.9,29.90,NW,319,0.0,3.0,94,0.04,,SKC,0.23,VWS V14.01,2013-02-13 04:27:00,
2013-02-12 23:32:00,48.5,46.9,29.90,NW,326,0.0,3.0,94,0.04,,SKC,0.23,VWS V14.01,2013-02-13 04:32:00,
2013-02-12 23:37:00,48.3,46.7,29.89,ENE,67,2.0,4.0,94,0.04,,SKC,0.23,VWS V14.01,2013-02-13 04:37:00,
2013-02-12 23:42:00,48.2,46.8,29.89,NNE,26,2.0,4.0,95,0.05,,SKC,0.24,VWS V14.01,2013-02-13 04:42:00,
2013-02-12 23:47:00,48.1,46.7,29.89,NE,36,0.0,5.0,95,0.05,,SKC,0.24,VWS V14.01,2013-02-13 04:47:00,
2013-02-12 23:52:00,48.1,46.7,29.88,ENE,74,2.0,5.0,95,0.06,,SKC,0.25,VWS V14.01,2013-02-13 04:52:00,
2013-02-12 23:57:00,48.1,46.7,29.88,ENE,73,2.0,5.0,95,0.06,,SKC,0.25,VWS V14.01,2013-02-13 04:57:00,